Wetterdaten: Freitag, 28.05.2010
Datum Zeit Temp. A. Feuchte A. Luftdruck Regen Wind Richtung Richtung Sonnenschein UV Solar Windben
28.05.2010 00:00 12,8 C 82 % 1008,3 hPa 0,0 mm 0,0 km/h (0 Bft) N 0 0 min 0 UV-I 0 W/m 0,0 km/h (0 Bft)
28.05.2010 00:10 12,8 C 82 % 1008,2 hPa 0,0 mm 0,0 km/h (0 Bft) N 0 0 min 0 UV-I 0 W/m 0,0 km/h (0 Bft)
28.05.2010 00:20 12,9 C 82 % 1008,0 hPa 0,0 mm 0,0 km/h (0 Bft) N 0 0 min 0 UV-I 0 W/m 0,0 km/h (0 Bft)
28.05.2010 00:30 13,0 C 83 % 1008,2 hPa 0,0 mm 0,0 km/h (0 Bft) W 270 0 min 0 UV-I 0 W/m 3,2 km/h (1 Bft)
28.05.2010 00:40 12,9 C 83 % 1008,1 hPa 0,0 mm 0,0 km/h (0 Bft) W 270 0 min 0 UV-I 0 W/m 4,8 km/h (1 Bft)
28.05.2010 00:50 12,8 C 84 % 1008,2 hPa 0,0 mm 0,0 km/h (0 Bft) W 270 0 min 0 UV-I 0 W/m 3,2 km/h (1 Bft)
28.05.2010 01:00 12,5 C 84 % 1008,2 hPa 0,0 mm 0,0 km/h (0 Bft) W 270 0 min 0 UV-I 0 W/m 1,6 km/h (1 Bft)
28.05.2010 01:10 12,3 C 85 % 1008,2 hPa 0,0 mm 0,0 km/h (0 Bft) W 270 0 min 0 UV-I 0 W/m 1,6 km/h (1 Bft)
28.05.2010 01:20 12,1 C 86 % 1008,2 hPa 0,0 mm 0,0 km/h (0 Bft) W 270 0 min 0 UV-I 0 W/m 1,6 km/h (1 Bft)
28.05.2010 01:30 11,8 C 86 % 1008,4 hPa 0,0 mm 0,0 km/h (0 Bft) W 270 0 min 0 UV-I 0 W/m 3,2 km/h (1 Bft)
28.05.2010 01:40 11,6 C 86 % 1008,4 hPa 0,0 mm 0,0 km/h (0 Bft) W 270 0 min 0 UV-I 0 W/m 1,6 km/h (1 Bft)
28.05.2010 01:50 11,5 C 87 % 1008,4 hPa 0,0 mm 0,0 km/h (0 Bft) N 0 0 min 0 UV-I 0 W/m 0,0 km/h (0 Bft)
28.05.2010 02:00 11,6 C 86 % 1008,7 hPa 0,0 mm 0,0 km/h (0 Bft) W 270 0 min 0 UV-I 0 W/m 3,2 km/h (1 Bft)
28.05.2010 02:10 11,6 C 86 % 1008,5 hPa 0,0 mm 0,0 km/h (0 Bft) N 0 0 min 0 UV-I 0 W/m 0,0 km/h (0 Bft)
28.05.2010 02:20 11,2 C 87 % 1008,4 hPa 0,0 mm 0,0 km/h (0 Bft) W 270 0 min 0 UV-I 0 W/m 1,6 km/h (1 Bft)
28.05.2010 02:30 11,1 C 87 % 1008,5 hPa 0,0 mm 0,0 km/h (0 Bft) W 270 0 min 0 UV-I 0 W/m 3,2 km/h (1 Bft)
28.05.2010 02:40 11,2 C 87 % 1008,4 hPa 0,0 mm 0,0 km/h (0 Bft) W 270 0 min 0 UV-I 0 W/m 1,6 km/h (1 Bft)
28.05.2010 02:50 11,3 C 87 % 1008,6 hPa 0,0 mm 0,0 km/h (0 Bft) W 270 0 min 0 UV-I 0 W/m 1,6 km/h (1 Bft)
28.05.2010 03:00 11,3 C 86 % 1008,6 hPa 0,0 mm 0,0 km/h (0 Bft) W 270 0 min 0 UV-I 0 W/m 1,6 km/h (1 Bft)
28.05.2010 03:10 11,2 C 87 % 1008,5 hPa 0,0 mm 0,0 km/h (0 Bft) W 270 0 min 0 UV-I 0 W/m 1,6 km/h (1 Bft)
28.05.2010 03:20 11,2 C 87 % 1008,4 hPa 0,0 mm 0,0 km/h (0 Bft) W 270 0 min 0 UV-I 0 W/m 3,2 km/h (1 Bft)
28.05.2010 03:30 11,1 C 87 % 1008,4 hPa 0,0 mm 0,0 km/h (0 Bft) W 270 0 min 0 UV-I 0 W/m 3,2 km/h (1 Bft)
28.05.2010 03:40 11,0 C 87 % 1008,5 hPa 0,0 mm 0,0 km/h (0 Bft) W 270 0 min 0 UV-I 0 W/m 1,6 km/h (1 Bft)
28.05.2010 03:50 11,1 C 87 % 1008,6 hPa 0,0 mm 0,0 km/h (0 Bft) N 0 0 min 0 UV-I 0 W/m 0,0 km/h (0 Bft)
28.05.2010 04:00 11,1 C 87 % 1008,6 hPa 0,0 mm 0,0 km/h (0 Bft) N 0 0 min 0 UV-I 0 W/m 0,0 km/h (0 Bft)
28.05.2010 04:10 11,0 C 88 % 1008,4 hPa 0,0 mm 0,0 km/h (0 Bft) W 270 0 min 0 UV-I 0 W/m 3,2 km/h (1 Bft)
28.05.2010 04:20 11,1 C 88 % 1008,4 hPa 0,0 mm 0,0 km/h (0 Bft) N 0 0 min 0 UV-I 0 W/m 0,0 km/h (0 Bft)
28.05.2010 04:30 11,0 C 88 % 1008,5 hPa 0,0 mm 0,0 km/h (0 Bft) N 0 0 min 0 UV-I 0 W/m 0,0 km/h (0 Bft)
28.05.2010 04:40 10,9 C 88 % 1008,5 hPa 0,0 mm 0,0 km/h (0 Bft) W 270 0 min 0 UV-I 0 W/m 1,6 km/h (1 Bft)
28.05.2010 04:50 10,8 C 89 % 1008,6 hPa 0,0 mm 0,0 km/h (0 Bft) N 0 0 min 0 UV-I 0 W/m 0,0 km/h (0 Bft)
28.05.2010 05:00 10,7 C 89 % 1008,4 hPa 0,0 mm 0,0 km/h (0 Bft) N 0 0 min 0 UV-I 0 W/m 0,0 km/h (0 Bft)
28.05.2010 05:10 10,6 C 90 % 1008,5 hPa 0,0 mm 0,0 km/h (0 Bft) N 0 0 min 0 UV-I 0 W/m 0,0 km/h (0 Bft)
28.05.2010 05:20 10,4 C 90 % 1008,1 hPa 0,0 mm 0,0 km/h (0 Bft) W 270 0 min 0 UV-I 0 W/m 3,2 km/h (1 Bft)
28.05.2010 05:30 10,3 C 91 % 1008,5 hPa 0,0 mm 0,0 km/h (0 Bft) W 270 0 min 0 UV-I 5 W/m 1,6 km/h (1 Bft)
28.05.2010 05:40 10,4 C 91 % 1008,7 hPa 0,0 mm 0,0 km/h (0 Bft) W 270 0 min 0 UV-I 14 W/m 1,6 km/h (1 Bft)
28.05.2010 05:50 10,6 C 91 % 1008,8 hPa 0,0 mm 0,0 km/h (0 Bft) W 270 0 min 0 UV-I 18 W/m 4,8 km/h (1 Bft)
28.05.2010 06:00 10,5 C 91 % 1008,9 hPa 0,0 mm 0,0 km/h (0 Bft) W 270 0 min 0 UV-I 25 W/m 4,8 km/h (1 Bft)
28.05.2010 06:10 10,6 C 91 % 1009,0 hPa 0,0 mm 0,0 km/h (0 Bft) W 270 0 min 0 UV-I 42 W/m 3,2 km/h (1 Bft)
28.05.2010 06:20 10,6 C 91 % 1009,0 hPa 0,0 mm 0,0 km/h (0 Bft) W 270 0 min 0 UV-I 46 W/m 3,2 km/h (1 Bft)
28.05.2010 06:30 10,7 C 91 % 1008,9 hPa 0,0 mm 0,0 km/h (0 Bft) W 270 0 min 0 UV-I 37 W/m 1,6 km/h (1 Bft)
28.05.2010 06:40 10,8 C 91 % 1008,9 hPa 0,0 mm 0,0 km/h (0 Bft) N 0 0 min 0 UV-I 33 W/m 0,0 km/h (0 Bft)
28.05.2010 06:50 10,9 C 91 % 1008,9 hPa 0,0 mm 0,0 km/h (0 Bft) W 270 0 min 0 UV-I 35 W/m 1,6 km/h (1 Bft)
28.05.2010 07:00 11,1 C 91 % 1009,0 hPa 0,0 mm 0,0 km/h (0 Bft) W 270 0 min 0 UV-I 39 W/m 1,6 km/h (1 Bft)
28.05.2010 07:10 11,1 C 91 % 1009,2 hPa 0,0 mm 0,0 km/h (0 Bft) W 270 0 min 0 UV-I 35 W/m 1,6 km/h (1 Bft)
28.05.2010 07:20 11,1 C 91 % 1009,2 hPa 0,0 mm 0,0 km/h (0 Bft) N 0 0 min 0 UV-I 39 W/m 0,0 km/h (0 Bft)
28.05.2010 07:30 11,2 C 91 % 1009,3 hPa 0,0 mm 0,0 km/h (0 Bft) W 270 0 min 0 UV-I 44 W/m 1,6 km/h (1 Bft)
28.05.2010 07:40 11,1 C 91 % 1009,4 hPa 0,0 mm 0,0 km/h (0 Bft) N 0 0 min 0 UV-I 37 W/m 0,0 km/h (0 Bft)
28.05.2010 07:50 11,0 C 91 % 1009,5 hPa 0,0 mm 0,0 km/h (0 Bft) W 270 0 min 0 UV-I 56 W/m 1,6 km/h (1 Bft)
28.05.2010 08:00 11,1 C 91 % 1009,5 hPa 0,3 mm 0,0 km/h (0 Bft) W 277 0 min 1 UV-I 91 W/m 0,0 km/h (0 Bft)
28.05.2010 08:10 11,3 C 91 % 1009,5 hPa 0,0 mm 0,0 km/h (0 Bft) N 0 0 min 1 UV-I 125 W/m 0,0 km/h (0 Bft)
28.05.2010 08:20 11,5 C 91 % 1009,7 hPa 0,0 mm 0,0 km/h (0 Bft) W 270 0 min 1 UV-I 139 W/m 3,2 km/h (1 Bft)
28.05.2010 08:30 11,5 C 91 % 1009,8 hPa 0,0 mm 0,0 km/h (0 Bft) W 270 0 min 1 UV-I 100 W/m 1,6 km/h (1 Bft)
28.05.2010 08:40 11,5 C 91 % 1009,9 hPa 0,0 mm 0,0 km/h (0 Bft) W 270 0 min 1 UV-I 100 W/m 1,6 km/h (1 Bft)
28.05.2010 08:50 11,6 C 91 % 1010,1 hPa 0,0 mm 0,0 km/h (0 Bft) W 270 0 min 0 UV-I 53 W/m 4,8 km/h (1 Bft)
28.05.2010 09:00 11,6 C 91 % 1010,2 hPa 0,0 mm 0,0 km/h (0 Bft) W 270 0 min 0 UV-I 51 W/m 4,8 km/h (1 Bft)
28.05.2010 09:10 11,6 C 91 % 1010,4 hPa 0,0 mm 1,6 km/h (1 Bft) W 270 0 min 1 UV-I 72 W/m 6,4 km/h (2 Bft)
28.05.2010 09:20 11,5 C 91 % 1010,3 hPa 0,3 mm 0,0 km/h (0 Bft) W 270 0 min 1 UV-I 86 W/m 4,8 km/h (1 Bft)
28.05.2010 09:30 11,4 C 91 % 1010,3 hPa 0,0 mm 0,0 km/h (0 Bft) W 270 0 min 1 UV-I 97 W/m 4,8 km/h (1 Bft)
28.05.2010 09:40 11,5 C 91 % 1010,3 hPa 0,0 mm 0,0 km/h (0 Bft) W 270 0 min 1 UV-I 125 W/m 1,6 km/h (1 Bft)
28.05.2010 09:50 11,6 C 91 % 1010,5 hPa 0,0 mm 0,0 km/h (0 Bft) W 270 0 min 1 UV-I 116 W/m 1,6 km/h (1 Bft)
28.05.2010 10:00 11,6 C 91 % 1010,5 hPa 0,0 mm 0,0 km/h (0 Bft) W 270 0 min 1 UV-I 100 W/m 3,2 km/h (1 Bft)
28.05.2010 10:10 11,7 C 90 % 1010,7 hPa 0,0 mm 0,0 km/h (0 Bft) W 270 0 min 1 UV-I 98 W/m 3,2 km/h (1 Bft)
28.05.2010 10:20 11,7 C 91 % 1010,8 hPa 0,3 mm 0,0 km/h (0 Bft) W 270 0 min 1 UV-I 156 W/m 3,2 km/h (1 Bft)
28.05.2010 10:30 11,9 C 90 % 1010,8 hPa 0,0 mm 0,0 km/h (0 Bft) W 270 0 min 1 UV-I 179 W/m 1,6 km/h (1 Bft)
28.05.2010 10:40 12,1 C 90 % 1010,8 hPa 0,0 mm 0,0 km/h (0 Bft) W 270 0 min 2 UV-I 306 W/m 3,2 km/h (1 Bft)
28.05.2010 10:50 12,6 C 89 % 1010,8 hPa 0,0 mm 0,0 km/h (0 Bft) W 270 10 min 4 UV-I 533 W/m 3,2 km/h (1 Bft)
28.05.2010 11:00 13,0 C 85 % 1010,9 hPa 0,0 mm 1,6 km/h (1 Bft) W-SW 247 10 min 3 UV-I 503 W/m 4,8 km/h (1 Bft)
28.05.2010 11:10 13,1 C 85 % 1011,0 hPa 0,0 mm 1,6 km/h (1 Bft) W 270 10 min 3 UV-I 457 W/m 9,7 km/h (2 Bft)
28.05.2010 11:20 13,6 C 83 % 1010,9 hPa 0,0 mm 1,6 km/h (1 Bft) SW 225 0 min 3 UV-I 367 W/m 8,0 km/h (2 Bft)
28.05.2010 11:30 13,7 C 83 % 1011,0 hPa 0,0 mm 1,6 km/h (1 Bft) S-SW 202 0 min 3 UV-I 394 W/m 8,0 km/h (2 Bft)
28.05.2010 11:40 13,9 C 83 % 1011,0 hPa 0,0 mm 1,6 km/h (1 Bft) SW 225 10 min 5 UV-I 886 W/m 8,0 km/h (2 Bft)
28.05.2010 11:50 14,7 C 80 % 1011,1 hPa 0,0 mm 3,2 km/h (1 Bft) W 270 10 min 6 UV-I 893 W/m 11,3 km/h (2 Bft)
28.05.2010 12:00 15,0 C 78 % 1011,1 hPa 0,0 mm 1,6 km/h (1 Bft) W-SW 247 0 min 4 UV-I 396 W/m 8,0 km/h (2 Bft)
28.05.2010 12:10 14,9 C 76 % 1011,1 hPa 0,0 mm 1,6 km/h (1 Bft) S-SW 202 0 min 4 UV-I 329 W/m 8,0 km/h (2 Bft)
28.05.2010 12:20 14,7 C 77 % 1011,2 hPa 0,0 mm 1,6 km/h (1 Bft) SW 225 10 min 6 UV-I 882 W/m 6,4 km/h (2 Bft)
28.05.2010 12:30 15,1 C 71 % 1011,1 hPa 0,0 mm 3,2 km/h (1 Bft) SW 225 10 min 6 UV-I 847 W/m 9,7 km/h (2 Bft)
28.05.2010 12:40 15,3 C 72 % 1011,1 hPa 0,0 mm 3,2 km/h (1 Bft) W 270 10 min 4 UV-I 715 W/m 9,7 km/h (2 Bft)
28.05.2010 12:50 15,5 C 73 % 1011,1 hPa 0,0 mm 3,2 km/h (1 Bft) W 270 0 min 6 UV-I 329 W/m 17,7 km/h (3 Bft)
28.05.2010 13:00 15,9 C 68 % 1011,3 hPa 0,0 mm 6,4 km/h (2 Bft) W 270 0 min 5 UV-I 450 W/m 14,5 km/h (3 Bft)
28.05.2010 13:10 15,6 C 70 % 1011,3 hPa 0,0 mm 4,8 km/h (1 Bft) W-NW 292 0 min 3 UV-I 272 W/m 11,3 km/h (2 Bft)
28.05.2010 13:20 16,0 C 64 % 1011,3 hPa 0,0 mm 3,2 km/h (1 Bft) W-NW 292 10 min 7 UV-I 977 W/m 11,3 km/h (2 Bft)
28.05.2010 13:30 16,9 C 60 % 1010,9 hPa 0,0 mm 6,4 km/h (2 Bft) W 270 10 min 7 UV-I 1049 W/m 17,7 km/h (3 Bft)
28.05.2010 13:40 17,4 C 58 % 1010,5 hPa 0,0 mm 6,5 km/h (2 Bft) W-NW 297 10 min 6 UV-I 836 W/m 17,7 km/h (3 Bft)
28.05.2010 13:50 17,2 C 55 % 1010,5 hPa 0,0 mm 5,8 km/h (2 Bft) W 268 10 min 4 UV-I 530 W/m 19,3 km/h (3 Bft)
28.05.2010 14:00 17,2 C 55 % 1011,0 hPa 0,0 mm 6,4 km/h (2 Bft) W 270 0 min 5 UV-I 417 W/m 16,1 km/h (3 Bft)
28.05.2010 14:10 17,5 C 53 % 1011,0 hPa 0,0 mm 6,4 km/h (2 Bft) W 270 10 min 6 UV-I 946 W/m 14,5 km/h (3 Bft)
28.05.2010 14:20 17,7 C 51 % 1010,6 hPa 0,0 mm 4,8 km/h (1 Bft) W 270 10 min 6 UV-I 967 W/m 14,5 km/h (3 Bft)
28.05.2010 14:30 17,8 C 53 % 1010,6 hPa 0,0 mm 4,8 km/h (1 Bft) W-NW 292 10 min 6 UV-I 1013 W/m 16,1 km/h (3 Bft)
28.05.2010 14:40 17,9 C 52 % 1010,6 hPa 0,0 mm 6,4 km/h (2 Bft) W 270 10 min 6 UV-I 1032 W/m 20,9 km/h (4 Bft)
28.05.2010 14:50 18,2 C 45 % 1010,7 hPa 0,0 mm 8,0 km/h (2 Bft) W 270 10 min 6 UV-I 984 W/m 22,5 km/h (4 Bft)
28.05.2010 15:00 18,7 C 44 % 1010,8 hPa 0,0 mm 9,7 km/h (2 Bft) W 270 10 min 6 UV-I 1000 W/m 24,1 km/h (4 Bft)
28.05.2010 15:10 18,6 C 45 % 1010,7 hPa 0,0 mm 9,7 km/h (2 Bft) W 270 10 min 6 UV-I 976 W/m 24,1 km/h (4 Bft)
28.05.2010 15:20 18,4 C 45 % 1010,8 hPa 0,0 mm 6,4 km/h (2 Bft) W-NW 292 10 min 5 UV-I 979 W/m 19,3 km/h (3 Bft)
28.05.2010 15:30 18,6 C 49 % 1010,9 hPa 0,0 mm 4,8 km/h (1 Bft) W-NW 292 10 min 4 UV-I 480 W/m 14,5 km/h (3 Bft)
28.05.2010 15:40 17,9 C 49 % 1011,0 hPa 0,0 mm 6,4 km/h (2 Bft) W 270 10 min 4 UV-I 833 W/m 20,9 km/h (4 Bft)
28.05.2010 15:50 18,2 C 46 % 1011,0 hPa 0,0 mm 8,0 km/h (2 Bft) W 270 10 min 5 UV-I 831 W/m 19,3 km/h (3 Bft)
28.05.2010 16:00 18,8 C 45 % 1011,9 hPa 0,0 mm 11,9 km/h (2 Bft) W 280 10 min 4 UV-I 816 W/m 20,9 km/h (4 Bft)
28.05.2010 16:10 18,6 C 45 % 1011,5 hPa 0,0 mm 8,0 km/h (2 Bft) W 270 10 min 4 UV-I 837 W/m 17,7 km/h (3 Bft)
28.05.2010 16:20 18,8 C 43 % 1012,0 hPa 0,0 mm 8,0 km/h (2 Bft) W 270 10 min 4 UV-I 807 W/m 17,7 km/h (3 Bft)
28.05.2010 16:30 19,2 C 44 % 1011,6 hPa 0,0 mm 8,0 km/h (2 Bft) W 270 10 min 4 UV-I 805 W/m 20,9 km/h (4 Bft)
28.05.2010 16:40 19,3 C 43 % 1011,7 hPa 0,0 mm 8,0 km/h (2 Bft) W 270 10 min 4 UV-I 754 W/m 19,3 km/h (3 Bft)
28.05.2010 16:50 19,1 C 44 % 1011,7 hPa 0,0 mm 8,0 km/h (2 Bft) W 270 10 min 3 UV-I 819 W/m 19,3 km/h (3 Bft)
28.05.2010 17:00 19,0 C 42 % 1012,2 hPa 0,0 mm 8,0 km/h (2 Bft) W-SW 247 10 min 3 UV-I 679 W/m 20,9 km/h (4 Bft)
28.05.2010 17:10 19,3 C 42 % 1011,7 hPa 0,0 mm 6,4 km/h (2 Bft) W-SW 247 10 min 3 UV-I 694 W/m 19,3 km/h (3 Bft)
28.05.2010 17:20 19,3 C 42 % 1011,4 hPa 0,0 mm 6,4 km/h (2 Bft) W 270 10 min 2 UV-I 671 W/m 20,9 km/h (4 Bft)
28.05.2010 17:30 19,3 C 43 % 1011,0 hPa 0,0 mm 9,7 km/h (2 Bft) W 270 10 min 2 UV-I 645 W/m 24,1 km/h (4 Bft)
28.05.2010 17:40 18,8 C 44 % 1011,5 hPa 0,0 mm 9,7 km/h (2 Bft) W 270 10 min 2 UV-I 552 W/m 29,0 km/h (5 Bft)
28.05.2010 17:50 18,5 C 48 % 1011,9 hPa 0,0 mm 4,8 km/h (1 Bft) NW 315 10 min 2 UV-I 489 W/m 19,3 km/h (3 Bft)
28.05.2010 18:00 18,4 C 47 % 1012,7 hPa 0,0 mm 4,8 km/h (1 Bft) W 270 10 min 2 UV-I 476 W/m 14,5 km/h (3 Bft)
28.05.2010 18:10 18,5 C 46 % 1012,8 hPa 0,0 mm 8,0 km/h (2 Bft) W 270 10 min 2 UV-I 450 W/m 17,7 km/h (3 Bft)
28.05.2010 18:20 18,4 C 47 % 1012,8 hPa 0,0 mm 8,0 km/h (2 Bft) W 270 10 min 1 UV-I 408 W/m 17,7 km/h (3 Bft)
28.05.2010 18:30 18,3 C 46 % 1012,6 hPa 0,0 mm 6,4 km/h (2 Bft) W 270 10 min 1 UV-I 392 W/m 19,3 km/h (3 Bft)
28.05.2010 18:40 18,3 C 47 % 1013,1 hPa 0,0 mm 8,0 km/h (2 Bft) W 270 10 min 1 UV-I 381 W/m 19,3 km/h (3 Bft)
28.05.2010 18:50 18,2 C 45 % 1013,2 hPa 0,0 mm 9,7 km/h (2 Bft) W 270 10 min 1 UV-I 341 W/m 20,9 km/h (4 Bft)
28.05.2010 19:00 18,3 C 44 % 1013,2 hPa 0,0 mm 6,4 km/h (2 Bft) W 270 10 min 1 UV-I 325 W/m 19,3 km/h (3 Bft)
28.05.2010 19:10 18,1 C 44 % 1013,3 hPa 0,0 mm 6,4 km/h (2 Bft) W 270 10 min 1 UV-I 306 W/m 19,3 km/h (3 Bft)
28.05.2010 19:20 17,9 C 43 % 1013,4 hPa 0,0 mm 6,4 km/h (2 Bft) W-NW 292 10 min 1 UV-I 294 W/m 22,5 km/h (4 Bft)
28.05.2010 19:30 18,1 C 43 % 1013,6 hPa 0,0 mm 6,4 km/h (2 Bft) W 270 10 min 1 UV-I 287 W/m 17,7 km/h (3 Bft)
28.05.2010 19:40 17,8 C 43 % 1013,7 hPa 0,0 mm 8,0 km/h (2 Bft) W 270 10 min 1 UV-I 221 W/m 22,5 km/h (4 Bft)
28.05.2010 19:50 17,4 C 44 % 1013,9 hPa 0,0 mm 6,4 km/h (2 Bft) NW 315 10 min 1 UV-I 200 W/m 22,5 km/h (4 Bft)
28.05.2010 20:00 17,2 C 44 % 1014,1 hPa 0,0 mm 6,4 km/h (2 Bft) W-NW 292 10 min 1 UV-I 174 W/m 20,9 km/h (4 Bft)
28.05.2010 20:10 16,9 C 44 % 1014,4 hPa 0,0 mm 8,0 km/h (2 Bft) W 270 10 min 0 UV-I 148 W/m 20,9 km/h (4 Bft)
28.05.2010 20:20 16,6 C 44 % 1014,5 hPa 0,0 mm 6,4 km/h (2 Bft) W-NW 292 0 min 0 UV-I 53 W/m 17,7 km/h (3 Bft)
28.05.2010 20:30 16,3 C 45 % 1014,6 hPa 0,0 mm 4,8 km/h (1 Bft) W 270 0 min 0 UV-I 46 W/m 20,9 km/h (4 Bft)
28.05.2010 20:40 16,1 C 46 % 1014,8 hPa 0,0 mm 4,8 km/h (1 Bft) W 270 0 min 0 UV-I 42 W/m 14,5 km/h (3 Bft)
28.05.2010 20:50 15,9 C 47 % 1014,9 hPa 0,0 mm 4,8 km/h (1 Bft) W-NW 292 0 min 0 UV-I 30 W/m 14,5 km/h (3 Bft)
28.05.2010 21:00 15,6 C 48 % 1015,0 hPa 0,0 mm 3,2 km/h (1 Bft) W-NW 292 0 min 0 UV-I 25 W/m 12,9 km/h (3 Bft)
28.05.2010 21:10 15,3 C 49 % 1015,1 hPa 0,0 mm 3,2 km/h (1 Bft) W 270 10 min 0 UV-I 18 W/m 14,5 km/h (3 Bft)
28.05.2010 21:20 15,0 C 50 % 1015,2 hPa 0,0 mm 1,6 km/h (1 Bft) NW 315 0 min 0 UV-I 12 W/m 8,0 km/h (2 Bft)
28.05.2010 21:30 14,7 C 51 % 1015,4 hPa 0,0 mm 0,0 km/h (0 Bft) W-NW 292 0 min 0 UV-I 7 W/m 3,2 km/h (1 Bft)
28.05.2010 21:40 14,4 C 52 % 1015,6 hPa 0,0 mm 1,6 km/h (1 Bft) W-NW 292 0 min 0 UV-I 0 W/m 8,0 km/h (2 Bft)
28.05.2010 21:50 14,2 C 52 % 1015,8 hPa 0,0 mm 1,6 km/h (1 Bft) W 270 0 min 0 UV-I 0 W/m 6,4 km/h (2 Bft)
28.05.2010 22:00 14,0 C 54 % 1015,9 hPa 0,0 mm 1,6 km/h (1 Bft) W 270 0 min 0 UV-I 0 W/m 6,4 km/h (2 Bft)
28.05.2010 22:10 13,7 C 55 % 1016,1 hPa 0,0 mm 0,0 km/h (0 Bft) W-NW 292 0 min 0 UV-I 0 W/m 4,8 km/h (1 Bft)
28.05.2010 22:20 13,4 C 56 % 1016,3 hPa 0,0 mm 1,6 km/h (1 Bft) W-NW 292 0 min 0 UV-I 0 W/m 8,0 km/h (2 Bft)
28.05.2010 22:30 13,3 C 58 % 1016,4 hPa 0,0 mm 1,6 km/h (1 Bft) NW 315 0 min 0 UV-I 0 W/m 6,4 km/h (2 Bft)
28.05.2010 22:40 13,2 C 59 % 1016,6 hPa 0,0 mm 1,6 km/h (1 Bft) NW 315 0 min 0 UV-I 0 W/m 8,0 km/h (2 Bft)
28.05.2010 22:50 13,0 C 59 % 1016,7 hPa 0,0 mm 1,6 km/h (1 Bft) W-NW 292 0 min 0 UV-I 0 W/m 14,5 km/h (3 Bft)
28.05.2010 23:00 12,8 C 61 % 1016,8 hPa 0,0 mm 0,0 km/h (0 Bft) W-NW 292 0 min 0 UV-I 0 W/m 3,2 km/h (1 Bft)
28.05.2010 23:10 12,5 C 62 % 1016,9 hPa 0,0 mm 0,0 km/h (0 Bft) W-NW 292 0 min 0 UV-I 0 W/m 1,6 km/h (1 Bft)
28.05.2010 23:20 11,9 C 65 % 1017,0 hPa 0,0 mm 0,0 km/h (0 Bft) N 0 0 min 0 UV-I 0 W/m 0,0 km/h (0 Bft)
28.05.2010 23:30 11,3 C 67 % 1017,1 hPa 0,0 mm 0,0 km/h (0 Bft) W-NW 292 0 min 0 UV-I 0 W/m 1,6 km/h (1 Bft)
28.05.2010 23:40 10,9 C 70 % 1017,2 hPa 0,0 mm 0,0 km/h (0 Bft) N 0 0 min 0 UV-I 0 W/m 0,0 km/h (0 Bft)
28.05.2010 23:50 10,4 C 71 % 1017,3 hPa 0,0 mm 0,0 km/h (0 Bft) N 0 0 min 0 UV-I 0 W/m 0,0 km/h (0 Bft)
_ Min-Zeit 05:20 17:00 00:20 - 00:00 - - - - - 00:00
Minimum _ 10,3 C 42 % 1008,0 hPa - 0,0 km/h (0 Bft) - - - - - 0,0 km/h (0 Bft)
_ Max-Zeit 17:10 05:30 23:50 08:00 16:00 - - 10:50 13:30 13:30 17:40
Maximum _ 19,6 C 91 % 1017,3 hPa 0,3 mm 11,9 km/h
W (2 Bft)
- - 10 min 7 UV-I 1049 W/m 29,0 km/h
W-SW (5 Bft)
Durchschnitt _ 14,1 C 70 % 1011,1 hPa #0,8 mm 2,6 km/h (1 Bft) W - #8:20 h 3 UV-I 390 W/m 8,8 km/h (2 Bft)